sensor_id;sensor_type;location;lat;lon;timestamp;P1;durP1;ratioP1;P2;durP2;ratioP2
1839;SDS011;920;48.944;9.148;2023-04-26T00:02:25;7.10;;;5.60;;
1839;SDS011;920;48.944;9.148;2023-04-26T00:04:52;9.70;;;6.70;;
1839;SDS011;920;48.944;9.148;2023-04-26T00:07:20;8.83;;;6.70;;
1839;SDS011;920;48.944;9.148;2023-04-26T00:09:47;7.40;;;6.23;;
1839;SDS011;920;48.944;9.148;2023-04-26T00:12:14;8.30;;;6.00;;
1839;SDS011;920;48.944;9.148;2023-04-26T00:14:42;7.00;;;5.33;;
1839;SDS011;920;48.944;9.148;2023-04-26T00:17:09;6.50;;;5.30;;
1839;SDS011;920;48.944;9.148;2023-04-26T00:19:35;6.90;;;6.20;;
1839;SDS011;920;48.944;9.148;2023-04-26T00:22:02;7.33;;;5.87;;
1839;SDS011;920;48.944;9.148;2023-04-26T00:24:29;9.10;;;6.07;;
1839;SDS011;920;48.944;9.148;2023-04-26T00:26:56;6.83;;;6.13;;
1839;SDS011;920;48.944;9.148;2023-04-26T00:29:24;6.60;;;5.53;;
1839;SDS011;920;48.944;9.148;2023-04-26T00:31:52;6.20;;;5.40;;
1839;SDS011;920;48.944;9.148;2023-04-26T00:34:19;7.20;;;5.57;;
1839;SDS011;920;48.944;9.148;2023-04-26T00:36:46;10.07;;;6.13;;
1839;SDS011;920;48.944;9.148;2023-04-26T00:39:13;6.17;;;5.50;;
1839;SDS011;920;48.944;9.148;2023-04-26T00:41:40;5.80;;;5.20;;
1839;SDS011;920;48.944;9.148;2023-04-26T00:44:07;7.97;;;6.23;;
1839;SDS011;920;48.944;9.148;2023-04-26T00:46:33;6.40;;;5.60;;
1839;SDS011;920;48.944;9.148;2023-04-26T00:49:02;8.60;;;5.57;;
1839;SDS011;920;48.944;9.148;2023-04-26T00:51:28;9.57;;;6.07;;
1839;SDS011;920;48.944;9.148;2023-04-26T00:53:55;7.13;;;6.20;;
1839;SDS011;920;48.944;9.148;2023-04-26T00:56:22;7.47;;;5.30;;
1839;SDS011;920;48.944;9.148;2023-04-26T00:58:50;6.93;;;6.00;;
1839;SDS011;920;48.944;9.148;2023-04-26T01:01:17;7.10;;;5.87;;
1839;SDS011;920;48.944;9.148;2023-04-26T01:03:44;8.37;;;5.97;;
1839;SDS011;920;48.944;9.148;2023-04-26T01:06:12;7.70;;;5.83;;
1839;SDS011;920;48.944;9.148;2023-04-26T01:08:39;10.13;;;6.90;;
1839;SDS011;920;48.944;9.148;2023-04-26T01:11:06;7.27;;;6.13;;
1839;SDS011;920;48.944;9.148;2023-04-26T01:13:32;7.40;;;6.30;;
1839;SDS011;920;48.944;9.148;2023-04-26T01:15:59;8.80;;;6.30;;
1839;SDS011;920;48.944;9.148;2023-04-26T01:18:27;7.40;;;6.20;;
1839;SDS011;920;48.944;9.148;2023-04-26T01:20:54;7.27;;;6.40;;
1839;SDS011;920;48.944;9.148;2023-04-26T01:23:23;7.70;;;5.70;;
1839;SDS011;920;48.944;9.148;2023-04-26T01:25:50;7.73;;;6.40;;
1839;SDS011;920;48.944;9.148;2023-04-26T01:28:20;7.63;;;5.60;;
1839;SDS011;920;48.944;9.148;2023-04-26T01:30:46;8.67;;;6.33;;
1839;SDS011;920;48.944;9.148;2023-04-26T01:33:13;7.90;;;6.57;;
1839;SDS011;920;48.944;9.148;2023-04-26T01:35:40;8.27;;;5.60;;
1839;SDS011;920;48.944;9.148;2023-04-26T01:38:07;6.30;;;5.60;;
1839;SDS011;920;48.944;9.148;2023-04-26T01:40:35;10.97;;;5.90;;
1839;SDS011;920;48.944;9.148;2023-04-26T01:43:04;8.53;;;6.50;;
1839;SDS011;920;48.944;9.148;2023-04-26T01:45:31;8.27;;;6.20;;
1839;SDS011;920;48.944;9.148;2023-04-26T01:48:16;7.90;;;6.00;;
1839;SDS011;920;48.944;9.148;2023-04-26T01:50:42;7.60;;;6.43;;
1839;SDS011;920;48.944;9.148;2023-04-26T01:53:11;7.97;;;6.03;;
1839;SDS011;920;48.944;9.148;2023-04-26T01:55:39;7.23;;;5.80;;
1839;SDS011;920;48.944;9.148;2023-04-26T01:58:08;7.30;;;5.40;;
1839;SDS011;920;48.944;9.148;2023-04-26T02:00:35;6.43;;;5.53;;
1839;SDS011;920;48.944;9.148;2023-04-26T02:03:02;8.53;;;5.90;;
1839;SDS011;920;48.944;9.148;2023-04-26T02:05:29;7.50;;;5.67;;
1839;SDS011;920;48.944;9.148;2023-04-26T02:07:56;6.60;;;5.90;;
1839;SDS011;920;48.944;9.148;2023-04-26T02:10:22;6.53;;;5.67;;
1839;SDS011;920;48.944;9.148;2023-04-26T02:12:50;8.70;;;5.73;;
1839;SDS011;920;48.944;9.148;2023-04-26T02:15:18;9.37;;;6.33;;
1839;SDS011;920;48.944;9.148;2023-04-26T02:17:45;8.93;;;5.70;;
1839;SDS011;920;48.944;9.148;2023-04-26T02:20:13;8.33;;;6.13;;
1839;SDS011;920;48.944;9.148;2023-04-26T02:22:40;10.47;;;5.80;;
1839;SDS011;920;48.944;9.148;2023-04-26T02:25:07;6.03;;;5.37;;
1839;SDS011;920;48.944;9.148;2023-04-26T02:27:35;8.13;;;5.90;;
1839;SDS011;920;48.944;9.148;2023-04-26T02:30:04;7.23;;;5.67;;
1839;SDS011;920;48.944;9.148;2023-04-26T02:32:32;8.20;;;6.10;;
1839;SDS011;920;48.944;9.148;2023-04-26T02:34:59;7.50;;;5.80;;
1839;SDS011;920;48.944;9.148;2023-04-26T02:37:26;7.97;;;6.17;;
1839;SDS011;920;48.944;9.148;2023-04-26T02:39:53;7.90;;;6.07;;
1839;SDS011;920;48.944;9.148;2023-04-26T02:42:20;7.13;;;5.73;;
1839;SDS011;920;48.944;9.148;2023-04-26T02:44:47;7.73;;;5.77;;
1839;SDS011;920;48.944;9.148;2023-04-26T02:47:15;7.83;;;6.00;;
1839;SDS011;920;48.944;9.148;2023-04-26T02:49:42;8.03;;;6.47;;
1839;SDS011;920;48.944;9.148;2023-04-26T02:52:09;8.77;;;6.40;;
1839;SDS011;920;48.944;9.148;2023-04-26T02:54:36;9.87;;;7.20;;
1839;SDS011;920;48.944;9.148;2023-04-26T02:57:03;8.73;;;6.00;;
1839;SDS011;920;48.944;9.148;2023-04-26T02:59:30;8.10;;;5.80;;
1839;SDS011;920;48.944;9.148;2023-04-26T03:01:57;7.70;;;6.70;;
1839;SDS011;920;48.944;9.148;2023-04-26T03:04:25;9.00;;;6.60;;
1839;SDS011;920;48.944;9.148;2023-04-26T03:06:52;7.80;;;6.57;;
1839;SDS011;920;48.944;9.148;2023-04-26T03:09:19;8.43;;;6.63;;
1839;SDS011;920;48.944;9.148;2023-04-26T03:11:46;9.27;;;6.80;;
1839;SDS011;920;48.944;9.148;2023-04-26T03:14:13;9.70;;;7.27;;
1839;SDS011;920;48.944;9.148;2023-04-26T03:16:41;9.33;;;7.20;;
1839;SDS011;920;48.944;9.148;2023-04-26T03:19:08;9.33;;;7.83;;
1839;SDS011;920;48.944;9.148;2023-04-26T03:21:37;9.70;;;8.10;;
1839;SDS011;920;48.944;9.148;2023-04-26T03:24:05;10.93;;;8.90;;
1839;SDS011;920;48.944;9.148;2023-04-26T03:26:32;12.53;;;9.17;;
1839;SDS011;920;48.944;9.148;2023-04-26T03:28:59;11.67;;;8.97;;
1839;SDS011;920;48.944;9.148;2023-04-26T03:31:26;12.97;;;8.90;;
1839;SDS011;920;48.944;9.148;2023-04-26T03:33:52;13.30;;;9.50;;
1839;SDS011;920;48.944;9.148;2023-04-26T03:36:19;15.20;;;9.80;;
1839;SDS011;920;48.944;9.148;2023-04-26T03:38:48;17.80;;;10.63;;
1839;SDS011;920;48.944;9.148;2023-04-26T03:41:17;55.20;;;12.40;;
1839;SDS011;920;48.944;9.148;2023-04-26T03:43:43;22.97;;;10.60;;
1839;SDS011;920;48.944;9.148;2023-04-26T03:46:10;25.53;;;11.67;;
1839;SDS011;920;48.944;9.148;2023-04-26T03:48:37;13.27;;;10.00;;
1839;SDS011;920;48.944;9.148;2023-04-26T03:51:04;14.30;;;9.97;;
1839;SDS011;920;48.944;9.148;2023-04-26T03:53:31;62.80;;;11.80;;
1839;SDS011;920;48.944;9.148;2023-04-26T03:55:59;17.60;;;11.87;;
1839;SDS011;920;48.944;9.148;2023-04-26T03:58:26;99.97;;;15.13;;
1839;SDS011;920;48.944;9.148;2023-04-26T04:00:55;20.80;;;11.67;;
1839;SDS011;920;48.944;9.148;2023-04-26T04:03:22;16.93;;;10.90;;
1839;SDS011;920;48.944;9.148;2023-04-26T04:05:50;20.00;;;10.77;;
1839;SDS011;920;48.944;9.148;2023-04-26T04:08:17;17.57;;;11.40;;
1839;SDS011;920;48.944;9.148;2023-04-26T04:10:44;25.90;;;12.27;;
1839;SDS011;920;48.944;9.148;2023-04-26T04:13:12;14.13;;;9.87;;
1839;SDS011;920;48.944;9.148;2023-04-26T04:15:39;17.10;;;11.70;;
1839;SDS011;920;48.944;9.148;2023-04-26T04:18:07;27.10;;;11.07;;
1839;SDS011;920;48.944;9.148;2023-04-26T04:20:34;23.43;;;11.60;;
1839;SDS011;920;48.944;9.148;2023-04-26T04:23:00;17.70;;;11.40;;
1839;SDS011;920;48.944;9.148;2023-04-26T04:25:30;16.13;;;11.10;;
1839;SDS011;920;48.944;9.148;2023-04-26T04:28:01;26.50;;;10.10;;
1839;SDS011;920;48.944;9.148;2023-04-26T04:30:29;18.83;;;11.53;;
1839;SDS011;920;48.944;9.148;2023-04-26T04:32:56;16.27;;;11.63;;
1839;SDS011;920;48.944;9.148;2023-04-26T04:35:24;17.07;;;11.27;;
1839;SDS011;920;48.944;9.148;2023-04-26T04:37:54;13.67;;;9.63;;
1839;SDS011;920;48.944;9.148;2023-04-26T04:40:21;13.80;;;10.43;;
1839;SDS011;920;48.944;9.148;2023-04-26T04:42:49;21.50;;;10.70;;
1839;SDS011;920;48.944;9.148;2023-04-26T04:45:19;45.20;;;12.83;;
1839;SDS011;920;48.944;9.148;2023-04-26T04:47:48;30.63;;;12.23;;
1839;SDS011;920;48.944;9.148;2023-04-26T04:50:15;27.90;;;12.80;;
1839;SDS011;920;48.944;9.148;2023-04-26T04:52:42;37.27;;;13.17;;
1839;SDS011;920;48.944;9.148;2023-04-26T04:55:09;23.97;;;12.83;;
1839;SDS011;920;48.944;9.148;2023-04-26T04:57:37;17.00;;;12.07;;
1839;SDS011;920;48.944;9.148;2023-04-26T05:00:04;17.50;;;11.57;;
1839;SDS011;920;48.944;9.148;2023-04-26T05:02:37;27.23;;;12.43;;
1839;SDS011;920;48.944;9.148;2023-04-26T05:05:06;44.40;;;13.47;;
1839;SDS011;920;48.944;9.148;2023-04-26T05:07:33;44.83;;;13.03;;
1839;SDS011;920;48.944;9.148;2023-04-26T05:10:00;18.67;;;12.10;;
1839;SDS011;920;48.944;9.148;2023-04-26T05:12:29;20.13;;;12.70;;
1839;SDS011;920;48.944;9.148;2023-04-26T05:14:56;17.80;;;11.93;;
1839;SDS011;920;48.944;9.148;2023-04-26T05:17:22;24.03;;;12.47;;
1839;SDS011;920;48.944;9.148;2023-04-26T05:19:49;23.50;;;13.23;;
1839;SDS011;920;48.944;9.148;2023-04-26T05:22:17;18.40;;;12.57;;
1839;SDS011;920;48.944;9.148;2023-04-26T05:24:46;32.10;;;14.60;;
1839;SDS011;920;48.944;9.148;2023-04-26T05:27:14;25.50;;;12.93;;
1839;SDS011;920;48.944;9.148;2023-04-26T05:30:01;19.30;;;13.10;;
1839;SDS011;920;48.944;9.148;2023-04-26T05:32:45;23.50;;;12.00;;
1839;SDS011;920;48.944;9.148;2023-04-26T05:35:28;19.40;;;12.73;;
1839;SDS011;920;48.944;9.148;2023-04-26T05:37:56;19.47;;;13.00;;
1839;SDS011;920;48.944;9.148;2023-04-26T05:40:23;19.23;;;11.73;;
1839;SDS011;920;48.944;9.148;2023-04-26T05:42:50;19.47;;;12.57;;
1839;SDS011;920;48.944;9.148;2023-04-26T05:45:17;20.90;;;14.00;;
1839;SDS011;920;48.944;9.148;2023-04-26T05:47:44;18.33;;;12.53;;
1839;SDS011;920;48.944;9.148;2023-04-26T05:50:12;17.33;;;12.47;;
1839;SDS011;920;48.944;9.148;2023-04-26T05:52:39;20.47;;;12.77;;
1839;SDS011;920;48.944;9.148;2023-04-26T05:55:08;18.60;;;11.80;;
1839;SDS011;920;48.944;9.148;2023-04-26T05:57:35;17.33;;;11.43;;
1839;SDS011;920;48.944;9.148;2023-04-26T06:00:02;16.50;;;12.17;;
1839;SDS011;920;48.944;9.148;2023-04-26T06:02:39;17.03;;;12.00;;
1839;SDS011;920;48.944;9.148;2023-04-26T06:05:10;18.00;;;12.40;;
1839;SDS011;920;48.944;9.148;2023-04-26T06:07:37;16.80;;;12.23;;
1839;SDS011;920;48.944;9.148;2023-04-26T06:10:04;17.73;;;11.80;;
1839;SDS011;920;48.944;9.148;2023-04-26T06:12:33;19.43;;;12.37;;
1839;SDS011;920;48.944;9.148;2023-04-26T06:15:00;18.83;;;12.33;;
1839;SDS011;920;48.944;9.148;2023-04-26T06:17:28;16.77;;;12.30;;
1839;SDS011;920;48.944;9.148;2023-04-26T06:19:55;17.93;;;12.10;;
1839;SDS011;920;48.944;9.148;2023-04-26T06:22:22;19.03;;;11.93;;
1839;SDS011;920;48.944;9.148;2023-04-26T06:24:49;18.67;;;12.37;;
1839;SDS011;920;48.944;9.148;2023-04-26T06:27:15;17.73;;;12.00;;
1839;SDS011;920;48.944;9.148;2023-04-26T06:29:47;16.47;;;11.60;;
1839;SDS011;920;48.944;9.148;2023-04-26T06:32:15;16.87;;;11.67;;
1839;SDS011;920;48.944;9.148;2023-04-26T06:34:45;15.67;;;11.53;;
1839;SDS011;920;48.944;9.148;2023-04-26T06:37:11;16.60;;;11.90;;
1839;SDS011;920;48.944;9.148;2023-04-26T06:39:41;17.67;;;11.83;;
1839;SDS011;920;48.944;9.148;2023-04-26T06:42:08;17.47;;;12.93;;
1839;SDS011;920;48.944;9.148;2023-04-26T06:44:55;18.27;;;12.40;;
1839;SDS011;920;48.944;9.148;2023-04-26T06:47:22;18.27;;;12.50;;
1839;SDS011;920;48.944;9.148;2023-04-26T06:49:49;15.37;;;11.27;;
1839;SDS011;920;48.944;9.148;2023-04-26T06:52:16;14.23;;;11.27;;
1839;SDS011;920;48.944;9.148;2023-04-26T06:54:42;15.97;;;11.87;;
1839;SDS011;920;48.944;9.148;2023-04-26T06:57:09;16.17;;;12.60;;
1839;SDS011;920;48.944;9.148;2023-04-26T06:59:36;21.53;;;18.20;;
1839;SDS011;920;48.944;9.148;2023-04-26T07:02:04;20.57;;;17.33;;
1839;SDS011;920;48.944;9.148;2023-04-26T07:04:31;16.93;;;13.60;;
1839;SDS011;920;48.944;9.148;2023-04-26T07:06:57;17.73;;;12.33;;
1839;SDS011;920;48.944;9.148;2023-04-26T07:09:24;14.20;;;11.80;;
1839;SDS011;920;48.944;9.148;2023-04-26T07:11:51;11.80;;;10.60;;
1839;SDS011;920;48.944;9.148;2023-04-26T07:14:18;11.40;;;10.07;;
1839;SDS011;920;48.944;9.148;2023-04-26T07:16:44;12.97;;;11.00;;
1839;SDS011;920;48.944;9.148;2023-04-26T07:19:12;14.90;;;11.67;;
1839;SDS011;920;48.944;9.148;2023-04-26T07:21:39;11.67;;;9.37;;
1839;SDS011;920;48.944;9.148;2023-04-26T07:24:06;12.93;;;9.27;;
1839;SDS011;920;48.944;9.148;2023-04-26T07:26:33;10.83;;;8.50;;
1839;SDS011;920;48.944;9.148;2023-04-26T07:29:00;8.93;;;5.53;;
1839;SDS011;920;48.944;9.148;2023-04-26T07:31:28;7.37;;;4.50;;
1839;SDS011;920;48.944;9.148;2023-04-26T07:33:55;6.50;;;5.33;;
1839;SDS011;920;48.944;9.148;2023-04-26T07:36:23;7.80;;;6.00;;
1839;SDS011;920;48.944;9.148;2023-04-26T07:38:52;7.30;;;4.97;;
1839;SDS011;920;48.944;9.148;2023-04-26T07:41:18;7.00;;;5.23;;
1839;SDS011;920;48.944;9.148;2023-04-26T07:43:45;5.67;;;5.00;;
1839;SDS011;920;48.944;9.148;2023-04-26T07:46:12;6.07;;;3.40;;
1839;SDS011;920;48.944;9.148;2023-04-26T07:48:39;5.40;;;3.50;;
1839;SDS011;920;48.944;9.148;2023-04-26T07:51:06;5.77;;;4.13;;
1839;SDS011;920;48.944;9.148;2023-04-26T07:53:34;6.00;;;4.00;;
1839;SDS011;920;48.944;9.148;2023-04-26T07:56:02;6.50;;;4.40;;
1839;SDS011;920;48.944;9.148;2023-04-26T07:58:29;5.83;;;4.40;;
1839;SDS011;920;48.944;9.148;2023-04-26T08:00:57;6.43;;;3.80;;
1839;SDS011;920;48.944;9.148;2023-04-26T08:03:23;4.80;;;3.37;;
1839;SDS011;920;48.944;9.148;2023-04-26T08:05:51;5.90;;;4.30;;
1839;SDS011;920;48.944;9.148;2023-04-26T08:08:19;7.40;;;3.87;;
1839;SDS011;920;48.944;9.148;2023-04-26T08:10:47;5.63;;;3.73;;
1839;SDS011;920;48.944;9.148;2023-04-26T08:13:14;4.80;;;4.10;;
1839;SDS011;920;48.944;9.148;2023-04-26T08:15:40;6.00;;;4.00;;
1839;SDS011;920;48.944;9.148;2023-04-26T08:18:07;6.70;;;3.97;;
1839;SDS011;920;48.944;9.148;2023-04-26T08:20:34;5.20;;;4.30;;
1839;SDS011;920;48.944;9.148;2023-04-26T08:23:01;5.23;;;4.03;;
1839;SDS011;920;48.944;9.148;2023-04-26T08:25:27;6.33;;;4.10;;
1839;SDS011;920;48.944;9.148;2023-04-26T08:27:56;5.80;;;3.30;;
1839;SDS011;920;48.944;9.148;2023-04-26T08:30:22;7.70;;;3.67;;
1839;SDS011;920;48.944;9.148;2023-04-26T08:32:49;8.07;;;3.93;;
1839;SDS011;920;48.944;9.148;2023-04-26T08:35:18;4.70;;;3.60;;
1839;SDS011;920;48.944;9.148;2023-04-26T08:37:46;7.30;;;4.30;;
1839;SDS011;920;48.944;9.148;2023-04-26T08:40:13;5.63;;;4.13;;
1839;SDS011;920;48.944;9.148;2023-04-26T08:42:40;6.17;;;3.87;;
1839;SDS011;920;48.944;9.148;2023-04-26T08:45:10;5.70;;;4.43;;
1839;SDS011;920;48.944;9.148;2023-04-26T08:47:38;5.60;;;3.80;;
1839;SDS011;920;48.944;9.148;2023-04-26T08:50:09;5.33;;;4.33;;
1839;SDS011;920;48.944;9.148;2023-04-26T08:52:38;5.73;;;4.13;;
1839;SDS011;920;48.944;9.148;2023-04-26T08:55:06;4.87;;;3.87;;
1839;SDS011;920;48.944;9.148;2023-04-26T08:57:34;6.33;;;3.80;;
1839;SDS011;920;48.944;9.148;2023-04-26T09:00:01;6.17;;;4.10;;
1839;SDS011;920;48.944;9.148;2023-04-26T09:02:33;6.50;;;4.20;;
1839;SDS011;920;48.944;9.148;2023-04-26T09:05:01;6.07;;;4.30;;
1839;SDS011;920;48.944;9.148;2023-04-26T09:07:29;5.67;;;3.90;;
1839;SDS011;920;48.944;9.148;2023-04-26T09:09:57;5.70;;;4.17;;
1839;SDS011;920;48.944;9.148;2023-04-26T09:12:25;6.23;;;4.20;;
1839;SDS011;920;48.944;9.148;2023-04-26T09:14:51;5.80;;;3.90;;
1839;SDS011;920;48.944;9.148;2023-04-26T09:17:25;5.43;;;4.00;;
1839;SDS011;920;48.944;9.148;2023-04-26T09:19:54;5.57;;;3.70;;
1839;SDS011;920;48.944;9.148;2023-04-26T09:22:30;5.80;;;3.93;;
1839;SDS011;920;48.944;9.148;2023-04-26T09:24:57;8.37;;;4.57;;
1839;SDS011;920;48.944;9.148;2023-04-26T09:27:30;9.40;;;4.30;;
1839;SDS011;920;48.944;9.148;2023-04-26T09:30:05;6.13;;;3.87;;
1839;SDS011;920;48.944;9.148;2023-04-26T09:32:50;5.87;;;3.80;;
1839;SDS011;920;48.944;9.148;2023-04-26T09:35:26;8.03;;;3.97;;
1839;SDS011;920;48.944;9.148;2023-04-26T09:37:55;6.20;;;4.00;;
1839;SDS011;920;48.944;9.148;2023-04-26T09:40:27;5.30;;;3.57;;
1839;SDS011;920;48.944;9.148;2023-04-26T09:42:56;5.00;;;3.63;;
1839;SDS011;920;48.944;9.148;2023-04-26T09:45:26;4.50;;;3.23;;
1839;SDS011;920;48.944;9.148;2023-04-26T09:47:54;4.30;;;3.13;;
1839;SDS011;920;48.944;9.148;2023-04-26T09:50:26;6.33;;;3.50;;
1839;SDS011;920;48.944;9.148;2023-04-26T09:52:54;6.83;;;3.50;;
1839;SDS011;920;48.944;9.148;2023-04-26T09:55:25;5.73;;;3.30;;
1839;SDS011;920;48.944;9.148;2023-04-26T09:57:52;6.83;;;3.40;;
1839;SDS011;920;48.944;9.148;2023-04-26T10:00:19;4.03;;;2.93;;
1839;SDS011;920;48.944;9.148;2023-04-26T10:02:46;4.53;;;2.77;;
1839;SDS011;920;48.944;9.148;2023-04-26T10:05:13;4.53;;;3.00;;
1839;SDS011;920;48.944;9.148;2023-04-26T10:07:42;5.13;;;3.30;;
1839;SDS011;920;48.944;9.148;2023-04-26T10:10:09;4.10;;;2.80;;
1839;SDS011;920;48.944;9.148;2023-04-26T10:12:37;4.83;;;3.50;;
1839;SDS011;920;48.944;9.148;2023-04-26T10:15:04;4.90;;;3.40;;
1839;SDS011;920;48.944;9.148;2023-04-26T10:17:32;4.97;;;3.70;;
1839;SDS011;920;48.944;9.148;2023-04-26T10:19:58;5.53;;;3.37;;
1839;SDS011;920;48.944;9.148;2023-04-26T10:22:27;4.10;;;2.90;;
1839;SDS011;920;48.944;9.148;2023-04-26T10:24:59;6.37;;;3.80;;
1839;SDS011;920;48.944;9.148;2023-04-26T10:30:18;5.77;;;2.70;;
1839;SDS011;920;48.944;9.148;2023-04-26T10:36:07;4.27;;;2.67;;
1839;SDS011;920;48.944;9.148;2023-04-26T10:38:36;6.60;;;2.77;;
1839;SDS011;920;48.944;9.148;2023-04-26T10:43:58;4.10;;;3.10;;
1839;SDS011;920;48.944;9.148;2023-04-26T10:46:36;6.70;;;3.40;;
1839;SDS011;920;48.944;9.148;2023-04-26T10:49:14;3.70;;;2.90;;
1839;SDS011;920;48.944;9.148;2023-04-26T10:54:54;5.70;;;2.93;;
1839;SDS011;920;48.944;9.148;2023-04-26T10:57:23;4.30;;;3.00;;
1839;SDS011;920;48.944;9.148;2023-04-26T11:02:52;4.17;;;3.57;;
1839;SDS011;920;48.944;9.148;2023-04-26T11:08:17;5.00;;;3.30;;
1839;SDS011;920;48.944;9.148;2023-04-26T11:10:48;4.47;;;3.20;;
1839;SDS011;920;48.944;9.148;2023-04-26T11:13:18;5.37;;;3.20;;
1839;SDS011;920;48.944;9.148;2023-04-26T11:15:45;3.83;;;2.77;;
1839;SDS011;920;48.944;9.148;2023-04-26T11:18:13;6.57;;;3.13;;
1839;SDS011;920;48.944;9.148;2023-04-26T11:20:44;5.20;;;3.53;;
1839;SDS011;920;48.944;9.148;2023-04-26T11:23:10;4.60;;;3.50;;
1839;SDS011;920;48.944;9.148;2023-04-26T11:25:38;4.23;;;3.10;;
1839;SDS011;920;48.944;9.148;2023-04-26T11:28:05;4.40;;;3.20;;
1839;SDS011;920;48.944;9.148;2023-04-26T11:30:33;7.67;;;3.53;;
1839;SDS011;920;48.944;9.148;2023-04-26T11:33:00;6.27;;;3.63;;
1839;SDS011;920;48.944;9.148;2023-04-26T11:35:31;4.93;;;3.50;;
1839;SDS011;920;48.944;9.148;2023-04-26T11:37:59;5.50;;;3.67;;
1839;SDS011;920;48.944;9.148;2023-04-26T11:40:26;5.07;;;3.40;;
1839;SDS011;920;48.944;9.148;2023-04-26T11:42:57;4.20;;;3.47;;
1839;SDS011;920;48.944;9.148;2023-04-26T11:45:25;4.17;;;2.80;;
1839;SDS011;920;48.944;9.148;2023-04-26T11:47:53;5.83;;;3.03;;
1839;SDS011;920;48.944;9.148;2023-04-26T11:50:20;5.23;;;2.97;;
1839;SDS011;920;48.944;9.148;2023-04-26T11:52:52;6.60;;;2.90;;
1839;SDS011;920;48.944;9.148;2023-04-26T11:55:22;3.80;;;2.90;;
1839;SDS011;920;48.944;9.148;2023-04-26T11:57:50;4.00;;;2.93;;
1839;SDS011;920;48.944;9.148;2023-04-26T12:00:17;4.03;;;2.60;;
1839;SDS011;920;48.944;9.148;2023-04-26T12:02:45;3.80;;;2.40;;
1839;SDS011;920;48.944;9.148;2023-04-26T12:05:21;5.43;;;3.10;;
1839;SDS011;920;48.944;9.148;2023-04-26T12:07:51;3.63;;;2.53;;
1839;SDS011;920;48.944;9.148;2023-04-26T12:10:21;4.77;;;2.70;;
1839;SDS011;920;48.944;9.148;2023-04-26T12:12:50;4.10;;;2.60;;
1839;SDS011;920;48.944;9.148;2023-04-26T12:15:17;4.50;;;3.13;;
1839;SDS011;920;48.944;9.148;2023-04-26T12:17:53;7.03;;;2.87;;
1839;SDS011;920;48.944;9.148;2023-04-26T12:20:29;5.00;;;2.73;;
1839;SDS011;920;48.944;9.148;2023-04-26T12:22:57;3.47;;;2.40;;
1839;SDS011;920;48.944;9.148;2023-04-26T12:25:25;5.60;;;2.97;;
1839;SDS011;920;48.944;9.148;2023-04-26T12:27:52;5.30;;;3.00;;
1839;SDS011;920;48.944;9.148;2023-04-26T12:30:19;4.47;;;3.10;;
1839;SDS011;920;48.944;9.148;2023-04-26T12:33:00;5.30;;;3.70;;
1839;SDS011;920;48.944;9.148;2023-04-26T12:35:26;4.40;;;3.10;;
1839;SDS011;920;48.944;9.148;2023-04-26T12:37:55;4.30;;;3.90;;
1839;SDS011;920;48.944;9.148;2023-04-26T12:40:24;5.57;;;3.50;;
1839;SDS011;920;48.944;9.148;2023-04-26T12:42:52;5.20;;;3.80;;
1839;SDS011;920;48.944;9.148;2023-04-26T12:45:20;5.40;;;3.63;;
1839;SDS011;920;48.944;9.148;2023-04-26T12:47:48;4.70;;;3.17;;
1839;SDS011;920;48.944;9.148;2023-04-26T12:50:15;4.23;;;3.20;;
1839;SDS011;920;48.944;9.148;2023-04-26T12:52:43;4.50;;;3.40;;
1839;SDS011;920;48.944;9.148;2023-04-26T12:55:11;4.10;;;3.70;;
1839;SDS011;920;48.944;9.148;2023-04-26T12:57:39;3.67;;;2.90;;
1839;SDS011;920;48.944;9.148;2023-04-26T13:00:07;4.87;;;3.00;;
1839;SDS011;920;48.944;9.148;2023-04-26T13:02:35;4.23;;;3.03;;
1839;SDS011;920;48.944;9.148;2023-04-26T13:05:02;4.90;;;3.03;;
1839;SDS011;920;48.944;9.148;2023-04-26T13:07:30;4.13;;;3.40;;
1839;SDS011;920;48.944;9.148;2023-04-26T13:09:59;7.40;;;3.90;;
1839;SDS011;920;48.944;9.148;2023-04-26T13:12:26;5.00;;;3.10;;
1839;SDS011;920;48.944;9.148;2023-04-26T13:14:53;3.97;;;3.00;;
1839;SDS011;920;48.944;9.148;2023-04-26T13:17:21;4.53;;;2.87;;
1839;SDS011;920;48.944;9.148;2023-04-26T13:19:49;5.10;;;3.30;;
1839;SDS011;920;48.944;9.148;2023-04-26T13:22:16;5.40;;;3.30;;
1839;SDS011;920;48.944;9.148;2023-04-26T13:24:43;5.83;;;3.30;;
1839;SDS011;920;48.944;9.148;2023-04-26T13:27:11;5.17;;;3.20;;
1839;SDS011;920;48.944;9.148;2023-04-26T13:29:38;4.60;;;3.20;;
1839;SDS011;920;48.944;9.148;2023-04-26T13:32:06;5.43;;;2.97;;
1839;SDS011;920;48.944;9.148;2023-04-26T13:34:32;10.50;;;3.30;;
1839;SDS011;920;48.944;9.148;2023-04-26T13:36:59;5.57;;;3.00;;
1839;SDS011;920;48.944;9.148;2023-04-26T13:39:28;6.17;;;3.47;;
1839;SDS011;920;48.944;9.148;2023-04-26T13:41:55;3.83;;;2.90;;
1839;SDS011;920;48.944;9.148;2023-04-26T13:44:24;3.33;;;2.80;;
1839;SDS011;920;48.944;9.148;2023-04-26T13:46:51;5.30;;;3.37;;
1839;SDS011;920;48.944;9.148;2023-04-26T13:49:19;4.70;;;3.23;;
1839;SDS011;920;48.944;9.148;2023-04-26T13:51:47;5.30;;;3.33;;
1839;SDS011;920;48.944;9.148;2023-04-26T13:54:13;3.97;;;3.10;;
1839;SDS011;920;48.944;9.148;2023-04-26T13:56:40;4.40;;;3.30;;
1839;SDS011;920;48.944;9.148;2023-04-26T13:59:07;4.50;;;2.80;;
1839;SDS011;920;48.944;9.148;2023-04-26T14:01:35;8.90;;;3.60;;
1839;SDS011;920;48.944;9.148;2023-04-26T14:04:03;6.40;;;3.47;;
1839;SDS011;920;48.944;9.148;2023-04-26T14:06:30;6.47;;;3.20;;
1839;SDS011;920;48.944;9.148;2023-04-26T14:08:58;4.67;;;3.43;;
1839;SDS011;920;48.944;9.148;2023-04-26T14:11:25;7.00;;;3.33;;
1839;SDS011;920;48.944;9.148;2023-04-26T14:13:52;5.53;;;3.10;;
1839;SDS011;920;48.944;9.148;2023-04-26T14:16:20;5.20;;;3.50;;
1839;SDS011;920;48.944;9.148;2023-04-26T14:18:49;5.00;;;3.57;;
1839;SDS011;920;48.944;9.148;2023-04-26T14:21:15;5.13;;;3.40;;
1839;SDS011;920;48.944;9.148;2023-04-26T14:23:42;6.40;;;3.13;;
1839;SDS011;920;48.944;9.148;2023-04-26T14:26:09;5.30;;;3.37;;
1839;SDS011;920;48.944;9.148;2023-04-26T14:28:36;6.53;;;4.00;;
1839;SDS011;920;48.944;9.148;2023-04-26T14:31:03;5.97;;;3.93;;
1839;SDS011;920;48.944;9.148;2023-04-26T14:33:29;6.23;;;3.83;;
1839;SDS011;920;48.944;9.148;2023-04-26T14:35:58;5.43;;;3.67;;
1839;SDS011;920;48.944;9.148;2023-04-26T14:38:25;4.83;;;3.57;;
1839;SDS011;920;48.944;9.148;2023-04-26T14:40:51;6.50;;;3.77;;
1839;SDS011;920;48.944;9.148;2023-04-26T14:43:18;9.47;;;3.87;;
1839;SDS011;920;48.944;9.148;2023-04-26T14:45:45;7.60;;;3.40;;
1839;SDS011;920;48.944;9.148;2023-04-26T14:48:11;4.77;;;3.70;;
1839;SDS011;920;48.944;9.148;2023-04-26T14:50:38;5.20;;;3.23;;
1839;SDS011;920;48.944;9.148;2023-04-26T14:53:06;4.87;;;3.07;;
1839;SDS011;920;48.944;9.148;2023-04-26T14:55:33;7.63;;;3.50;;
1839;SDS011;920;48.944;9.148;2023-04-26T14:58:00;4.17;;;3.23;;
1839;SDS011;920;48.944;9.148;2023-04-26T15:00:27;5.53;;;3.30;;
1839;SDS011;920;48.944;9.148;2023-04-26T15:02:54;5.07;;;3.23;;
1839;SDS011;920;48.944;9.148;2023-04-26T15:05:21;3.93;;;2.93;;
1839;SDS011;920;48.944;9.148;2023-04-26T15:07:48;4.67;;;2.80;;
1839;SDS011;920;48.944;9.148;2023-04-26T15:10:17;4.80;;;2.93;;
1839;SDS011;920;48.944;9.148;2023-04-26T15:12:44;3.87;;;3.40;;
1839;SDS011;920;48.944;9.148;2023-04-26T15:15:10;6.40;;;3.10;;
1839;SDS011;920;48.944;9.148;2023-04-26T15:17:37;3.87;;;2.67;;
1839;SDS011;920;48.944;9.148;2023-04-26T15:20:04;3.80;;;3.00;;
1839;SDS011;920;48.944;9.148;2023-04-26T15:22:33;4.03;;;2.90;;
1839;SDS011;920;48.944;9.148;2023-04-26T15:25:00;5.23;;;2.80;;
1839;SDS011;920;48.944;9.148;2023-04-26T15:27:28;3.87;;;2.90;;
1839;SDS011;920;48.944;9.148;2023-04-26T15:29:55;4.93;;;2.90;;
1839;SDS011;920;48.944;9.148;2023-04-26T15:32:22;4.37;;;2.80;;
1839;SDS011;920;48.944;9.148;2023-04-26T15:34:50;4.67;;;3.20;;
1839;SDS011;920;48.944;9.148;2023-04-26T15:37:16;3.60;;;2.77;;
1839;SDS011;920;48.944;9.148;2023-04-26T15:39:43;5.60;;;2.87;;
1839;SDS011;920;48.944;9.148;2023-04-26T15:42:10;5.63;;;3.07;;
1839;SDS011;920;48.944;9.148;2023-04-26T15:44:38;6.20;;;3.03;;
1839;SDS011;920;48.944;9.148;2023-04-26T15:47:05;4.90;;;2.60;;